Terminal Aerodrome Forecast
Issued by NWS Lake Charles, LA

Home | Current Version | Previous Version | Text Only | Print | Product List | Glossary On
Versions: 1 2 3 4 5 6 7 8 9 10 11 12 13 14 15 16 17
459
FTUS44 KLCH 210539
TAFLFT
TAF
KLFT 210539Z 2106/2206 16007KT P6SM VCSH OVC013
     FM210800 15008KT 5SM BR VCSH OVC007
     FM211400 17012KT P6SM VCSH OVC015
     FM211700 17014G21KT P6SM -SHRA OVC025
     FM220100 18006KT P6SM VCSH OVC015=

USA.gov is the U.S. government's official web portal to all federal, state and local government web resources and services.